createdAt,value
2018-07-25T00:00:42.365Z,99.90
2018-07-25T00:03:10.506Z,99.90
2018-07-25T00:05:38.617Z,99.90
2018-07-25T00:08:06.709Z,99.90
2018-07-25T00:10:40.493Z,99.90
2018-07-25T00:13:08.567Z,99.90
2018-07-25T00:15:36.637Z,99.90
2018-07-25T00:18:04.734Z,99.90
2018-07-25T00:20:32.883Z,99.90
2018-07-25T00:23:00.978Z,99.90
2018-07-25T00:25:29.046Z,99.90
2018-07-25T00:27:57.129Z,99.90
2018-07-25T00:30:25.201Z,99.90
2018-07-25T00:32:53.337Z,99.90
2018-07-25T00:35:21.442Z,99.90
2018-07-25T00:37:49.535Z,99.90
2018-07-25T00:40:17.585Z,99.90
2018-07-25T00:42:45.721Z,99.90
2018-07-25T00:45:13.890Z,99.90
2018-07-25T00:47:42.051Z,99.90
2018-07-25T00:50:10.199Z,99.90
2018-07-25T00:52:38.328Z,99.90
2018-07-25T00:55:06.431Z,99.90
2018-07-25T00:57:34.551Z,99.90
2018-07-25T01:00:02.803Z,99.90
2018-07-25T01:02:30.948Z,99.90
2018-07-25T01:04:59.032Z,99.90
2018-07-25T01:09:55.040Z,99.90
2018-07-25T01:12:23.223Z,99.90
2018-07-25T01:14:51.590Z,99.90
2018-07-25T01:17:19.679Z,99.90
2018-07-25T01:19:47.774Z,99.90
2018-07-25T01:22:15.883Z,99.90
2018-07-25T01:24:43.992Z,99.90
2018-07-25T01:27:12.083Z,99.90
2018-07-25T01:29:40.189Z,99.90
2018-07-25T01:32:08.342Z,99.90
2018-07-25T01:34:36.444Z,99.90
2018-07-25T01:37:04.576Z,99.90
2018-07-25T01:39:32.706Z,99.90
2018-07-25T01:42:00.760Z,99.90
2018-07-25T01:44:28.842Z,99.90
2018-07-25T01:46:56.900Z,99.90
2018-07-25T01:49:25.009Z,99.90
2018-07-25T01:51:53.118Z,99.90
2018-07-25T01:54:21.284Z,99.90
2018-07-25T01:56:49.356Z,99.90
2018-07-25T01:59:17.477Z,99.90
2018-07-25T02:01:45.690Z,99.90
2018-07-25T02:04:13.803Z,99.90
2018-07-25T02:06:41.931Z,99.90
2018-07-25T02:09:10.865Z,99.90
2018-07-25T02:11:39.109Z,99.90
2018-07-25T02:14:07.209Z,99.90
2018-07-25T02:16:35.346Z,99.90
2018-07-25T02:19:03.461Z,99.90
2018-07-25T02:21:31.562Z,99.90
2018-07-25T02:23:59.671Z,99.90
2018-07-25T02:26:27.824Z,99.90
2018-07-25T02:28:55.905Z,99.90
2018-07-25T02:31:24.053Z,99.90
2018-07-25T02:33:57.720Z,99.90
2018-07-25T02:36:25.778Z,99.90
2018-07-25T02:38:53.934Z,99.90
2018-07-25T02:41:22.753Z,99.90
2018-07-25T02:43:50.887Z,99.90
2018-07-25T02:48:46.736Z,99.90
2018-07-25T02:51:15.255Z,99.90
2018-07-25T02:53:43.309Z,99.90
2018-07-25T02:56:11.442Z,99.90
2018-07-25T02:58:39.538Z,99.90
2018-07-25T03:01:07.633Z,99.90
2018-07-25T03:03:35.743Z,99.90
2018-07-25T03:06:03.830Z,99.90
2018-07-25T03:08:31.959Z,99.90
2018-07-25T03:11:00.119Z,99.90
2018-07-25T03:13:28.199Z,99.90
2018-07-25T03:16:02.615Z,99.90
2018-07-25T03:18:30.784Z,99.90
2018-07-25T03:20:59.973Z,99.90
2018-07-25T03:23:28.589Z,99.90
2018-07-25T03:25:56.697Z,99.90
2018-07-25T03:28:25.423Z,99.90
2018-07-25T03:30:53.784Z,99.90
2018-07-25T03:33:22.439Z,99.90
2018-07-25T03:35:50.540Z,99.90
2018-07-25T03:38:18.659Z,99.90
2018-07-25T03:40:47.407Z,99.90
2018-07-25T03:43:15.750Z,99.90
2018-07-25T03:45:44.277Z,99.90
2018-07-25T03:48:12.438Z,99.90
2018-07-25T03:50:40.511Z,99.90
2018-07-25T03:53:08.691Z,99.90
2018-07-25T03:55:36.825Z,99.90
2018-07-25T03:58:05.109Z,99.90
2018-07-25T04:00:33.258Z,99.90
2018-07-25T04:03:01.992Z,99.90
2018-07-25T04:05:30.100Z,99.90
2018-07-25T04:07:58.151Z,99.90
2018-07-25T04:10:26.272Z,99.90
2018-07-25T04:12:54.444Z,99.90
2018-07-25T04:15:22.638Z,99.90
2018-07-25T04:17:50.701Z,99.90
2018-07-25T04:20:19.616Z,99.90
2018-07-25T04:22:47.746Z,99.90
2018-07-25T04:25:15.893Z,99.90
2018-07-25T04:27:45.092Z,99.90
2018-07-25T04:30:14.274Z,99.90
2018-07-25T04:32:43.185Z,99.90
2018-07-25T04:35:12.479Z,99.90
2018-07-25T04:37:41.055Z,99.90
2018-07-25T04:40:09.241Z,99.90
2018-07-25T04:42:37.628Z,99.90
2018-07-25T04:45:07.115Z,99.90
2018-07-25T04:47:35.222Z,99.90
2018-07-25T04:50:03.730Z,99.90
2018-07-25T04:52:31.843Z,99.90
2018-07-25T04:54:59.915Z,99.90
2018-07-25T04:57:28.138Z,99.90
2018-07-25T04:59:56.184Z,99.90
2018-07-25T05:02:24.327Z,99.90
2018-07-25T05:04:52.429Z,99.90
2018-07-25T05:09:49.289Z,99.90
2018-07-25T05:12:17.470Z,99.90
2018-07-25T05:14:45.579Z,99.90
2018-07-25T05:17:13.698Z,99.90
2018-07-25T05:19:41.840Z,99.90
2018-07-25T05:22:09.896Z,99.90
2018-07-25T05:24:38.033Z,99.90
2018-07-25T05:29:33.977Z,99.90
2018-07-25T05:32:02.125Z,99.90
2018-07-25T05:34:30.281Z,99.90
2018-07-25T05:36:58.333Z,99.90
2018-07-25T05:39:26.517Z,99.90
2018-07-25T05:41:54.578Z,99.90
2018-07-25T05:44:23.290Z,99.90
2018-07-25T05:46:51.416Z,99.90
2018-07-25T05:51:47.534Z,99.90
2018-07-25T05:54:15.714Z,99.90
2018-07-25T05:59:11.665Z,99.90
2018-07-25T06:01:39.742Z,99.90
2018-07-25T06:04:08.399Z,99.90
2018-07-25T06:06:36.497Z,99.90
2018-07-25T06:09:07.983Z,99.90
2018-07-25T06:11:36.154Z,99.90
2018-07-25T06:14:04.267Z,99.90
2018-07-25T06:16:32.371Z,99.90
2018-07-25T06:21:28.394Z,99.90
2018-07-25T06:23:57.119Z,99.90
2018-07-25T06:26:25.297Z,99.90
2018-07-25T06:28:53.360Z,99.90
2018-07-25T06:31:21.576Z,99.90
2018-07-25T06:33:49.661Z,99.90
2018-07-25T06:36:17.709Z,99.90
2018-07-25T06:38:45.809Z,99.90
2018-07-25T06:41:13.966Z,99.90
2018-07-25T06:43:42.127Z,99.90
2018-07-25T06:46:10.211Z,99.90
2018-07-25T06:48:38.281Z,99.90
2018-07-25T06:51:07.126Z,99.90
2018-07-25T06:53:35.248Z,99.90
2018-07-25T06:56:03.372Z,99.90
2018-07-25T07:00:59.493Z,99.90
2018-07-25T07:03:27.671Z,99.90
2018-07-25T07:05:55.830Z,99.90
2018-07-25T07:08:24.008Z,99.90
2018-07-25T07:10:52.125Z,99.90
2018-07-25T07:13:20.181Z,99.90
2018-07-25T07:15:48.304Z,99.90
2018-07-25T07:18:16.439Z,99.90
2018-07-25T07:20:44.597Z,99.90
2018-07-25T07:23:12.679Z,99.90
2018-07-25T07:25:40.753Z,99.90
2018-07-25T07:30:36.705Z,99.90
2018-07-25T07:33:04.857Z,99.90
2018-07-25T07:38:01.661Z,99.90
2018-07-25T07:40:29.715Z,99.90
2018-07-25T07:42:57.777Z,99.90
2018-07-25T07:45:25.869Z,98.50
2018-07-25T07:47:53.926Z,99.00
2018-07-25T07:50:22.198Z,99.90
2018-07-25T07:52:50.537Z,96.90
2018-07-25T07:55:18.633Z,99.50
2018-07-25T07:57:46.675Z,99.90
2018-07-25T08:02:42.644Z,99.90
2018-07-25T08:05:10.803Z,99.90
2018-07-25T08:07:38.893Z,99.40
2018-07-25T08:10:07.059Z,98.40
2018-07-25T08:12:35.217Z,99.50
2018-07-25T08:15:03.421Z,97.50
2018-07-25T08:17:31.532Z,95.90
2018-07-25T08:19:59.689Z,96.40
2018-07-25T08:22:27.736Z,98.50
2018-07-25T08:24:55.898Z,97.70
2018-07-25T08:27:24.009Z,96.20
2018-07-25T08:29:52.139Z,95.90
2018-07-25T08:32:20.324Z,95.40
2018-07-25T08:34:48.629Z,93.90
2018-07-25T08:37:16.721Z,94.10
2018-07-25T08:39:44.909Z,94.20
2018-07-25T08:42:12.946Z,92.50
2018-07-25T08:44:41.068Z,90.10
2018-07-25T08:47:10.097Z,89.30
2018-07-25T08:49:38.171Z,91.90
2018-07-25T08:52:06.302Z,90.20
2018-07-25T08:54:34.370Z,85.80
2018-07-25T08:57:03.280Z,84.60
2018-07-25T08:59:31.365Z,88.60
2018-07-25T09:01:59.463Z,87.30
2018-07-25T09:04:27.555Z,89.50
2018-07-25T09:06:55.600Z,87.60
2018-07-25T09:09:23.619Z,80.70
2018-07-25T09:11:51.710Z,80.90
2018-07-25T09:16:47.682Z,79.30
2018-07-25T09:19:16.212Z,74.80
2018-07-25T09:21:44.401Z,73.80
2018-07-25T09:24:12.695Z,75.20
2018-07-25T09:26:40.752Z,75.80
2018-07-25T09:29:08.811Z,73.60
2018-07-25T09:31:36.909Z,77.50
2018-07-25T09:34:05.212Z,82.30
2018-07-25T09:36:33.432Z,78.80
2018-07-25T09:39:01.580Z,71.70
2018-07-25T09:41:29.748Z,75.30
2018-07-25T09:43:57.849Z,71.50
2018-07-25T09:46:26.084Z,72.20
2018-07-25T09:48:54.271Z,67.80
2018-07-25T09:51:22.397Z,69.70
2018-07-25T09:53:50.516Z,62.50
2018-07-25T09:56:18.668Z,63.10
2018-07-25T09:58:46.811Z,67.00
2018-07-25T10:01:15.021Z,64.20
2018-07-25T10:03:43.149Z,61.40
2018-07-25T10:06:11.362Z,64.20
2018-07-25T10:08:39.524Z,67.40
2018-07-25T10:11:07.728Z,68.70
2018-07-25T10:13:35.869Z,68.70
2018-07-25T10:16:04.081Z,66.00
2018-07-25T10:18:32.185Z,69.00
2018-07-25T10:21:01.048Z,66.70
2018-07-25T10:23:29.175Z,65.00
2018-07-25T10:25:57.549Z,66.90
2018-07-25T10:28:25.652Z,59.20
2018-07-25T10:30:53.855Z,58.30
2018-07-25T10:33:21.971Z,58.60
2018-07-25T10:35:50.156Z,58.40
2018-07-25T10:38:18.429Z,58.20
2018-07-25T10:40:46.543Z,62.50
2018-07-25T10:43:14.655Z,61.40
2018-07-25T10:45:42.810Z,64.30
2018-07-25T10:48:10.956Z,65.50
2018-07-25T10:50:39.068Z,68.60
2018-07-25T10:53:07.401Z,63.50
2018-07-25T10:55:36.523Z,67.10
2018-07-25T10:58:04.645Z,63.60
2018-07-25T11:00:32.889Z,59.20
2018-07-25T11:03:01.040Z,58.40
2018-07-25T11:05:29.173Z,57.80
2018-07-25T11:10:25.196Z,58.30
2018-07-25T11:12:53.328Z,58.30
2018-07-25T11:15:21.421Z,61.70
2018-07-25T11:17:49.538Z,63.10
2018-07-25T11:20:17.647Z,59.00
2018-07-25T11:22:45.761Z,60.90
2018-07-25T11:25:13.889Z,64.00
2018-07-25T11:27:42.046Z,63.00
2018-07-25T11:30:10.179Z,59.80
2018-07-25T11:32:38.391Z,60.20
2018-07-25T11:35:06.387Z,61.80
2018-07-25T11:37:34.472Z,64.80
2018-07-25T11:40:02.640Z,64.00
2018-07-25T11:42:30.750Z,67.70
2018-07-25T11:44:58.841Z,64.80
2018-07-25T11:49:54.799Z,64.40
2018-07-25T11:52:22.982Z,63.20
2018-07-25T11:54:51.138Z,62.60
2018-07-25T11:57:19.248Z,59.80
2018-07-25T11:59:47.898Z,59.20
2018-07-25T12:02:15.955Z,58.70
2018-07-25T12:04:44.033Z,60.20
2018-07-25T12:07:12.145Z,61.80
2018-07-25T12:09:40.410Z,68.10
2018-07-25T12:12:08.577Z,68.60
2018-07-25T12:14:36.725Z,68.40
2018-07-25T12:17:04.935Z,68.10
2018-07-25T12:19:33.043Z,68.00
2018-07-25T12:22:01.187Z,68.50
2018-07-25T12:24:29.291Z,70.80
2018-07-25T12:26:57.553Z,73.20
2018-07-25T12:29:25.553Z,73.30
2018-07-25T12:34:21.613Z,71.00
2018-07-25T12:39:17.561Z,71.30
2018-07-25T12:41:45.722Z,71.20
2018-07-25T12:44:13.785Z,72.70
2018-07-25T12:49:09.699Z,74.80
2018-07-25T12:51:37.823Z,75.70
2018-07-25T12:54:06.063Z,75.90
2018-07-25T12:56:34.400Z,77.00
2018-07-25T12:59:02.571Z,81.10
2018-07-25T13:01:30.702Z,76.60
2018-07-25T13:06:26.746Z,73.70
2018-07-25T13:08:54.855Z,72.60
2018-07-25T13:11:23.047Z,73.00
2018-07-25T13:13:51.207Z,73.80
2018-07-25T13:18:47.382Z,81.10
2018-07-25T13:21:15.505Z,77.90
2018-07-25T13:23:43.679Z,75.50
2018-07-25T13:26:11.817Z,78.50
2018-07-25T13:28:39.973Z,77.40
2018-07-25T13:31:08.171Z,77.80
2018-07-25T13:33:36.301Z,79.50
2018-07-25T13:36:04.510Z,77.30
2018-07-25T13:38:32.592Z,76.60
2018-07-25T13:41:00.793Z,77.30
2018-07-25T13:43:29.012Z,79.40
2018-07-25T13:45:57.286Z,78.80
2018-07-25T13:48:25.337Z,77.90
2018-07-25T13:50:53.483Z,83.60
2018-07-25T13:53:21.706Z,85.20
2018-07-25T13:55:49.853Z,86.80
2018-07-25T13:58:17.978Z,88.30
2018-07-25T14:00:46.223Z,86.60
2018-07-25T14:03:14.408Z,85.70
2018-07-25T14:05:42.550Z,85.80
2018-07-25T14:08:10.721Z,87.30
2018-07-25T14:10:38.970Z,88.30
2018-07-25T14:13:07.181Z,88.80
2018-07-25T14:16:16.075Z,88.80
2018-07-25T14:18:45.588Z,89.50
2018-07-25T14:21:13.858Z,89.10
2018-07-25T14:23:43.682Z,88.20
2018-07-25T14:26:19.550Z,88.10
2018-07-25T14:34:44.940Z,88.70
2018-07-25T14:37:13.139Z,89.80
2018-07-25T14:39:41.380Z,89.10
2018-07-25T14:42:09.524Z,89.70
2018-07-25T14:44:37.795Z,90.00
2018-07-25T14:49:33.729Z,89.40
2018-07-25T14:52:01.916Z,88.50
2018-07-25T14:54:30.137Z,89.70
2018-07-25T14:56:58.441Z,88.00
2018-07-25T14:59:26.572Z,87.90
2018-07-25T15:01:54.761Z,87.60
2018-07-25T15:04:22.972Z,89.30
2018-07-25T15:06:51.137Z,88.40
2018-07-25T15:09:19.323Z,89.30
2018-07-25T15:11:48.276Z,87.60
2018-07-25T15:14:16.383Z,89.50
2018-07-25T15:19:12.421Z,89.80
2018-07-25T15:21:40.649Z,89.60
2018-07-25T15:24:08.776Z,90.80
2018-07-25T15:26:36.941Z,91.00
2018-07-25T15:31:33.106Z,91.00
2018-07-25T15:34:01.269Z,91.70
2018-07-25T15:36:40.617Z,91.30
2018-07-25T15:39:40.309Z,91.20
2018-07-25T15:42:08.539Z,92.70
2018-07-25T15:44:36.685Z,92.60
2018-07-25T15:47:04.904Z,92.40
2018-07-25T15:49:33.046Z,92.40
2018-07-25T15:52:01.383Z,92.70
2018-07-25T15:54:29.519Z,93.40
2018-07-25T15:56:57.718Z,93.50
2018-07-25T15:59:26.435Z,93.90
2018-07-25T16:01:54.672Z,94.30
2018-07-25T16:04:23.025Z,93.70
2018-07-25T16:06:51.222Z,92.70
2018-07-25T16:09:19.387Z,92.50
2018-07-25T16:11:48.078Z,92.50
2018-07-25T16:14:16.337Z,92.40
2018-07-25T16:16:44.572Z,92.30
2018-07-25T16:19:12.693Z,92.20
2018-07-25T16:21:40.888Z,92.20
2018-07-25T16:24:09.141Z,92.60
2018-07-25T16:26:38.016Z,92.90
2018-07-25T16:29:06.246Z,93.40
2018-07-25T16:31:34.453Z,93.80
2018-07-25T16:34:02.564Z,92.50
2018-07-25T16:36:30.733Z,92.60
2018-07-25T16:38:58.973Z,93.20
2018-07-25T16:41:27.196Z,93.00
2018-07-25T16:43:55.469Z,93.20
2018-07-25T16:46:23.637Z,92.50
2018-07-25T16:48:51.834Z,92.40
2018-07-25T16:51:19.996Z,92.40
2018-07-25T16:53:48.183Z,93.40
2018-07-25T16:56:16.335Z,92.60
2018-07-25T16:58:44.505Z,92.50
2018-07-25T17:01:12.687Z,92.50
2018-07-25T17:03:40.909Z,93.20
2018-07-25T17:08:36.989Z,93.30
2018-07-25T17:11:05.717Z,93.90
2018-07-25T17:13:33.837Z,94.60
2018-07-25T17:16:01.977Z,95.00
2018-07-25T17:18:30.156Z,96.50
2018-07-25T17:20:58.312Z,97.00
2018-07-25T17:23:26.524Z,95.80
2018-07-25T17:25:54.689Z,96.00
2018-07-25T17:28:23.001Z,96.10
2018-07-25T17:30:51.949Z,98.30
2018-07-25T17:33:20.207Z,99.40
2018-07-25T17:40:44.800Z,99.90
2018-07-25T17:45:41.056Z,99.90
2018-07-25T17:48:09.368Z,99.90
2018-07-25T17:50:38.883Z,99.90
2018-07-25T17:55:35.760Z,99.90
2018-07-25T17:58:04.262Z,99.90
2018-07-25T18:00:32.630Z,99.90
2018-07-25T18:03:01.630Z,99.90
2018-07-25T18:05:30.083Z,99.90
2018-07-25T18:07:58.488Z,99.90
2018-07-25T18:10:26.909Z,99.90
2018-07-25T18:13:00.650Z,99.90
2018-07-25T18:15:28.822Z,99.90
2018-07-25T18:17:56.990Z,99.90
2018-07-25T18:20:25.221Z,99.90
2018-07-25T18:22:54.340Z,99.90
2018-07-25T18:25:22.516Z,99.90
2018-07-25T18:27:50.770Z,99.90
2018-07-25T18:30:18.941Z,99.90
2018-07-25T18:32:47.236Z,99.90
2018-07-25T18:35:15.475Z,99.90
2018-07-25T18:37:43.854Z,99.90
2018-07-25T18:40:12.199Z,99.90
2018-07-25T18:42:40.587Z,99.90
2018-07-25T18:45:08.895Z,99.90
2018-07-25T18:47:37.081Z,99.90
2018-07-25T18:50:06.922Z,99.90
2018-07-25T18:52:35.091Z,99.90
2018-07-25T18:55:03.693Z,99.90
2018-07-25T18:57:31.869Z,99.90
2018-07-25T19:00:00.142Z,99.90
2018-07-25T19:02:28.445Z,99.90
2018-07-25T19:04:56.561Z,99.90
2018-07-25T19:07:25.005Z,99.90
2018-07-25T19:09:53.228Z,99.90
2018-07-25T19:12:21.398Z,99.90
2018-07-25T19:14:54.990Z,99.90
2018-07-25T19:17:23.368Z,99.90
2018-07-25T19:19:51.524Z,99.90
2018-07-25T19:22:19.955Z,99.90
2018-07-25T19:24:48.108Z,99.90
2018-07-25T19:27:16.326Z,99.90
2018-07-25T19:29:44.537Z,99.90
2018-07-25T19:32:12.919Z,99.90
2018-07-25T19:34:41.586Z,99.90
2018-07-25T19:37:10.213Z,99.90
2018-07-25T19:39:39.563Z,99.90
2018-07-25T19:42:09.442Z,99.90
2018-07-25T19:44:37.944Z,99.90
2018-07-25T19:47:06.599Z,99.90
2018-07-25T19:49:35.509Z,99.90
2018-07-25T19:52:04.080Z,99.90
2018-07-25T19:54:33.171Z,99.90
2018-07-25T19:59:30.578Z,99.90
2018-07-25T20:01:59.183Z,99.90
2018-07-25T20:04:27.607Z,99.90
2018-07-25T20:06:56.358Z,99.90
2018-07-25T20:11:53.145Z,99.90
2018-07-25T20:14:27.164Z,99.90
2018-07-25T20:19:23.552Z,99.90
2018-07-25T20:21:51.982Z,99.90
2018-07-25T20:24:20.344Z,99.90
2018-07-25T20:26:48.594Z,99.90
2018-07-25T20:29:16.710Z,99.90
2018-07-25T20:31:44.970Z,99.90
2018-07-25T20:34:13.332Z,99.90
2018-07-25T20:36:41.932Z,99.90
2018-07-25T20:39:11.816Z,99.90
2018-07-25T20:41:40.781Z,99.90
2018-07-25T20:44:09.691Z,99.90
2018-07-25T20:46:37.908Z,99.90
2018-07-25T20:49:06.565Z,99.90
2018-07-25T20:51:34.657Z,99.90
2018-07-25T20:54:03.217Z,99.90
2018-07-25T20:56:31.624Z,99.90
2018-07-25T20:59:00.107Z,99.90
2018-07-25T21:01:28.650Z,99.90
2018-07-25T21:06:24.949Z,99.90
2018-07-25T21:08:53.208Z,99.90
2018-07-25T21:13:49.770Z,99.90
2018-07-25T21:18:45.731Z,99.90
2018-07-25T21:21:13.856Z,99.90
2018-07-25T21:23:41.958Z,99.90
2018-07-25T21:26:10.078Z,99.90
2018-07-25T21:28:38.195Z,99.90
2018-07-25T21:31:06.413Z,99.90
2018-07-25T21:33:34.471Z,99.90
2018-07-25T21:36:02.639Z,99.90
2018-07-25T21:38:30.781Z,99.90
2018-07-25T21:40:58.893Z,99.90
2018-07-25T21:43:27.024Z,99.90
2018-07-25T21:48:22.998Z,99.90
2018-07-25T21:50:51.243Z,99.90
2018-07-25T21:53:19.340Z,99.90
2018-07-25T21:55:47.469Z,99.90
2018-07-25T21:58:15.639Z,99.90
2018-07-25T22:00:49.386Z,99.90
2018-07-25T22:03:17.515Z,99.90
2018-07-25T22:05:45.631Z,99.90
2018-07-25T22:08:13.924Z,99.90
2018-07-25T22:10:42.079Z,99.90
2018-07-25T22:13:10.187Z,99.90
2018-07-25T22:15:38.311Z,99.90
2018-07-25T22:20:34.843Z,99.90
2018-07-25T22:23:03.015Z,99.90
2018-07-25T22:25:32.013Z,99.90
2018-07-25T22:28:00.282Z,99.90
2018-07-25T22:30:28.473Z,99.90
2018-07-25T22:32:56.761Z,99.90
2018-07-25T22:35:24.909Z,99.90
2018-07-25T22:37:53.027Z,99.90
2018-07-25T22:40:21.082Z,99.90
2018-07-25T22:42:50.006Z,99.90
2018-07-25T22:45:18.132Z,99.90
2018-07-25T22:47:46.255Z,99.90
2018-07-25T22:50:14.365Z,99.90
2018-07-25T22:52:42.454Z,99.90
2018-07-25T22:55:10.565Z,99.90
2018-07-25T22:57:38.662Z,99.90
2018-07-25T23:00:06.935Z,99.90
2018-07-25T23:02:35.173Z,99.90
2018-07-25T23:05:03.729Z,99.90
2018-07-25T23:07:31.886Z,99.90
2018-07-25T23:09:59.978Z,99.90
2018-07-25T23:12:28.290Z,99.90
2018-07-25T23:14:56.586Z,99.90
2018-07-25T23:17:24.798Z,99.90
2018-07-25T23:19:53.071Z,99.90
2018-07-25T23:22:21.174Z,99.90
2018-07-25T23:24:49.275Z,99.90
2018-07-25T23:27:17.448Z,99.90
2018-07-25T23:29:45.601Z,99.90
2018-07-25T23:34:41.603Z,99.90
2018-07-25T23:37:09.726Z,99.90
2018-07-25T23:39:37.778Z,99.90
2018-07-25T23:42:05.961Z,99.90
2018-07-25T23:44:34.052Z,99.90
2018-07-25T23:47:02.218Z,99.90
2018-07-25T23:51:58.327Z,99.90
2018-07-25T23:54:26.415Z,99.90
2018-07-25T23:56:54.732Z,99.90
2018-07-25T23:59:23.036Z,99.90
